sensor_id;sensor_type;location;lat;lon;timestamp;temperature;humidity
11446;DHT22;5779;64.178;15.432;2023-06-14T00:02:37;7.70;99.90
11446;DHT22;5779;64.178;15.432;2023-06-14T00:05:25;7.70;99.90
11446;DHT22;5779;64.178;15.432;2023-06-14T00:08:13;7.60;99.90
11446;DHT22;5779;64.178;15.432;2023-06-14T00:11:00;7.60;99.90
11446;DHT22;5779;64.178;15.432;2023-06-14T00:13:47;7.70;99.90
11446;DHT22;5779;64.178;15.432;2023-06-14T00:16:34;7.70;99.90
11446;DHT22;5779;64.178;15.432;2023-06-14T00:19:22;7.50;99.90
11446;DHT22;5779;64.178;15.432;2023-06-14T00:22:10;7.20;99.90
11446;DHT22;5779;64.178;15.432;2023-06-14T00:24:57;7.20;99.90
11446;DHT22;5779;64.178;15.432;2023-06-14T00:27:44;7.40;99.90
11446;DHT22;5779;64.178;15.432;2023-06-14T00:30:31;7.30;99.90
11446;DHT22;5779;64.178;15.432;2023-06-14T00:33:18;7.20;99.90
11446;DHT22;5779;64.178;15.432;2023-06-14T00:36:05;7.20;99.90
11446;DHT22;5779;64.178;15.432;2023-06-14T00:38:53;7.20;99.90
11446;DHT22;5779;64.178;15.432;2023-06-14T00:41:40;7.20;99.90
11446;DHT22;5779;64.178;15.432;2023-06-14T00:44:27;7.10;99.90
11446;DHT22;5779;64.178;15.432;2023-06-14T00:47:14;7.10;99.90
11446;DHT22;5779;64.178;15.432;2023-06-14T00:50:01;7.30;99.90
11446;DHT22;5779;64.178;15.432;2023-06-14T00:52:48;7.30;99.90
11446;DHT22;5779;64.178;15.432;2023-06-14T00:55:37;7.10;99.90
11446;DHT22;5779;64.178;15.432;2023-06-14T00:58:24;6.80;99.90
11446;DHT22;5779;64.178;15.432;2023-06-14T01:01:11;6.50;99.90
11446;DHT22;5779;64.178;15.432;2023-06-14T01:03:59;6.60;99.90
11446;DHT22;5779;64.178;15.432;2023-06-14T01:06:55;6.60;99.90
11446;DHT22;5779;64.178;15.432;2023-06-14T01:09:58;6.70;99.90
11446;DHT22;5779;64.178;15.432;2023-06-14T01:12:55;6.70;99.90
11446;DHT22;5779;64.178;15.432;2023-06-14T01:15:44;6.60;99.90
11446;DHT22;5779;64.178;15.432;2023-06-14T01:18:32;6.60;99.90
11446;DHT22;5779;64.178;15.432;2023-06-14T01:21:22;6.60;99.90
11446;DHT22;5779;64.178;15.432;2023-06-14T01:24:10;6.60;99.90
11446;DHT22;5779;64.178;15.432;2023-06-14T01:26:59;6.60;99.90
11446;DHT22;5779;64.178;15.432;2023-06-14T01:29:46;6.40;99.90
11446;DHT22;5779;64.178;15.432;2023-06-14T01:32:34;6.30;99.90
11446;DHT22;5779;64.178;15.432;2023-06-14T01:35:20;6.20;99.90
11446;DHT22;5779;64.178;15.432;2023-06-14T01:38:07;6.20;99.90
11446;DHT22;5779;64.178;15.432;2023-06-14T01:40:57;6.10;99.90
11446;DHT22;5779;64.178;15.432;2023-06-14T01:43:45;5.90;99.90
11446;DHT22;5779;64.178;15.432;2023-06-14T01:46:33;5.90;99.90
11446;DHT22;5779;64.178;15.432;2023-06-14T01:49:20;5.80;99.90
11446;DHT22;5779;64.178;15.432;2023-06-14T01:52:07;5.80;99.90
11446;DHT22;5779;64.178;15.432;2023-06-14T01:54:55;5.90;99.90
11446;DHT22;5779;64.178;15.432;2023-06-14T01:57:45;5.90;99.90
11446;DHT22;5779;64.178;15.432;2023-06-14T02:00:32;6.00;99.90
11446;DHT22;5779;64.178;15.432;2023-06-14T02:03:20;6.00;99.90
11446;DHT22;5779;64.178;15.432;2023-06-14T02:06:06;6.10;99.90
11446;DHT22;5779;64.178;15.432;2023-06-14T02:08:54;6.10;99.90
11446;DHT22;5779;64.178;15.432;2023-06-14T02:11:40;6.00;99.90
11446;DHT22;5779;64.178;15.432;2023-06-14T02:14:28;6.00;99.90
11446;DHT22;5779;64.178;15.432;2023-06-14T02:17:15;6.00;99.90
11446;DHT22;5779;64.178;15.432;2023-06-14T02:20:02;6.00;99.90
11446;DHT22;5779;64.178;15.432;2023-06-14T02:22:50;6.00;99.90
11446;DHT22;5779;64.178;15.432;2023-06-14T02:25:37;6.20;99.90
11446;DHT22;5779;64.178;15.432;2023-06-14T02:28:25;6.20;99.90
11446;DHT22;5779;64.178;15.432;2023-06-14T02:31:13;6.10;99.90
11446;DHT22;5779;64.178;15.432;2023-06-14T02:34:00;6.20;99.90
11446;DHT22;5779;64.178;15.432;2023-06-14T02:36:46;6.10;99.90
11446;DHT22;5779;64.178;15.432;2023-06-14T02:39:33;6.10;99.90
11446;DHT22;5779;64.178;15.432;2023-06-14T02:42:20;6.20;99.90
11446;DHT22;5779;64.178;15.432;2023-06-14T02:45:08;6.30;99.90
11446;DHT22;5779;64.178;15.432;2023-06-14T02:47:56;6.20;99.90
11446;DHT22;5779;64.178;15.432;2023-06-14T02:50:43;6.30;99.90
11446;DHT22;5779;64.178;15.432;2023-06-14T02:53:30;6.40;99.90
11446;DHT22;5779;64.178;15.432;2023-06-14T02:56:17;6.60;99.90
11446;DHT22;5779;64.178;15.432;2023-06-14T02:59:04;6.70;99.90
11446;DHT22;5779;64.178;15.432;2023-06-14T03:01:51;6.80;99.90
11446;DHT22;5779;64.178;15.432;2023-06-14T03:04:39;6.90;99.90
11446;DHT22;5779;64.178;15.432;2023-06-14T03:07:29;6.90;99.90
11446;DHT22;5779;64.178;15.432;2023-06-14T03:10:16;7.00;99.90
11446;DHT22;5779;64.178;15.432;2023-06-14T03:13:03;7.10;99.90
11446;DHT22;5779;64.178;15.432;2023-06-14T03:15:50;7.30;99.90
11446;DHT22;5779;64.178;15.432;2023-06-14T03:18:37;7.50;99.90
11446;DHT22;5779;64.178;15.432;2023-06-14T03:21:25;7.70;99.90
11446;DHT22;5779;64.178;15.432;2023-06-14T03:24:12;7.80;99.90
11446;DHT22;5779;64.178;15.432;2023-06-14T03:26:59;8.00;99.90
11446;DHT22;5779;64.178;15.432;2023-06-14T03:29:46;8.10;99.90
11446;DHT22;5779;64.178;15.432;2023-06-14T03:32:33;8.10;99.90
11446;DHT22;5779;64.178;15.432;2023-06-14T03:35:20;8.10;99.90
11446;DHT22;5779;64.178;15.432;2023-06-14T03:38:08;8.00;99.90
11446;DHT22;5779;64.178;15.432;2023-06-14T03:40:55;8.10;99.90
11446;DHT22;5779;64.178;15.432;2023-06-14T03:43:42;8.30;99.90
11446;DHT22;5779;64.178;15.432;2023-06-14T03:46:29;8.40;99.90
11446;DHT22;5779;64.178;15.432;2023-06-14T03:49:15;8.60;99.90
11446;DHT22;5779;64.178;15.432;2023-06-14T03:52:02;8.90;99.90
11446;DHT22;5779;64.178;15.432;2023-06-14T03:54:51;9.10;99.90
11446;DHT22;5779;64.178;15.432;2023-06-14T03:57:38;9.40;99.90
11446;DHT22;5779;64.178;15.432;2023-06-14T04:00:25;9.50;99.90
11446;DHT22;5779;64.178;15.432;2023-06-14T04:03:12;9.60;99.90
11446;DHT22;5779;64.178;15.432;2023-06-14T04:06:00;9.90;99.90
11446;DHT22;5779;64.178;15.432;2023-06-14T04:08:47;9.80;99.90
11446;DHT22;5779;64.178;15.432;2023-06-14T04:11:36;9.70;99.90
11446;DHT22;5779;64.178;15.432;2023-06-14T04:14:23;9.70;99.90
11446;DHT22;5779;64.178;15.432;2023-06-14T04:17:10;9.90;99.90
11446;DHT22;5779;64.178;15.432;2023-06-14T04:19:57;10.10;99.90
11446;DHT22;5779;64.178;15.432;2023-06-14T04:22:45;10.40;99.90
11446;DHT22;5779;64.178;15.432;2023-06-14T04:25:31;10.40;99.90
11446;DHT22;5779;64.178;15.432;2023-06-14T04:28:20;10.70;99.90
11446;DHT22;5779;64.178;15.432;2023-06-14T04:31:11;11.10;99.90
11446;DHT22;5779;64.178;15.432;2023-06-14T04:33:58;11.30;99.90
11446;DHT22;5779;64.178;15.432;2023-06-14T04:36:46;11.40;99.90
11446;DHT22;5779;64.178;15.432;2023-06-14T04:39:34;11.60;99.90
11446;DHT22;5779;64.178;15.432;2023-06-14T04:42:21;11.50;99.90
11446;DHT22;5779;64.178;15.432;2023-06-14T04:45:11;11.60;99.90
11446;DHT22;5779;64.178;15.432;2023-06-14T04:48:00;11.50;99.90
11446;DHT22;5779;64.178;15.432;2023-06-14T04:50:47;11.60;99.90
11446;DHT22;5779;64.178;15.432;2023-06-14T04:53:37;11.90;99.90
11446;DHT22;5779;64.178;15.432;2023-06-14T04:56:25;12.00;99.90
11446;DHT22;5779;64.178;15.432;2023-06-14T04:59:12;12.30;99.90
11446;DHT22;5779;64.178;15.432;2023-06-14T05:02:02;12.40;99.90
11446;DHT22;5779;64.178;15.432;2023-06-14T05:04:48;12.50;99.90
11446;DHT22;5779;64.178;15.432;2023-06-14T05:07:35;12.70;99.90
11446;DHT22;5779;64.178;15.432;2023-06-14T05:10:22;12.80;99.90
11446;DHT22;5779;64.178;15.432;2023-06-14T05:13:09;12.80;99.90
11446;DHT22;5779;64.178;15.432;2023-06-14T05:15:56;12.90;99.90
11446;DHT22;5779;64.178;15.432;2023-06-14T05:18:45;13.00;99.90
11446;DHT22;5779;64.178;15.432;2023-06-14T05:21:32;13.10;99.90
11446;DHT22;5779;64.178;15.432;2023-06-14T05:24:20;13.40;99.90
11446;DHT22;5779;64.178;15.432;2023-06-14T05:27:07;13.40;99.90
11446;DHT22;5779;64.178;15.432;2023-06-14T05:29:54;13.50;99.90
11446;DHT22;5779;64.178;15.432;2023-06-14T05:32:43;13.50;99.90
11446;DHT22;5779;64.178;15.432;2023-06-14T05:35:32;13.70;99.90
11446;DHT22;5779;64.178;15.432;2023-06-14T05:38:19;13.90;99.90
11446;DHT22;5779;64.178;15.432;2023-06-14T05:41:06;14.10;99.90
11446;DHT22;5779;64.178;15.432;2023-06-14T05:43:54;14.00;99.90
11446;DHT22;5779;64.178;15.432;2023-06-14T05:46:41;14.10;99.90
11446;DHT22;5779;64.178;15.432;2023-06-14T05:49:28;14.20;99.90
11446;DHT22;5779;64.178;15.432;2023-06-14T05:52:16;14.20;99.90
11446;DHT22;5779;64.178;15.432;2023-06-14T05:55:03;14.20;99.90
11446;DHT22;5779;64.178;15.432;2023-06-14T05:57:51;14.20;99.90
11446;DHT22;5779;64.178;15.432;2023-06-14T06:00:38;14.50;99.90
11446;DHT22;5779;64.178;15.432;2023-06-14T06:03:24;14.50;99.90
11446;DHT22;5779;64.178;15.432;2023-06-14T06:06:14;14.40;99.90
11446;DHT22;5779;64.178;15.432;2023-06-14T06:09:03;14.50;99.90
11446;DHT22;5779;64.178;15.432;2023-06-14T06:11:50;14.50;99.90
11446;DHT22;5779;64.178;15.432;2023-06-14T06:14:37;14.70;99.90
11446;DHT22;5779;64.178;15.432;2023-06-14T06:17:24;14.90;99.90
11446;DHT22;5779;64.178;15.432;2023-06-14T06:20:12;15.00;99.90
11446;DHT22;5779;64.178;15.432;2023-06-14T06:22:59;15.10;99.90
11446;DHT22;5779;64.178;15.432;2023-06-14T06:25:47;15.20;99.90
11446;DHT22;5779;64.178;15.432;2023-06-14T06:28:33;15.20;99.80
11446;DHT22;5779;64.178;15.432;2023-06-14T06:31:20;15.20;99.90
11446;DHT22;5779;64.178;15.432;2023-06-14T06:34:07;15.40;99.70
11446;DHT22;5779;64.178;15.432;2023-06-14T06:36:54;15.40;99.60
11446;DHT22;5779;64.178;15.432;2023-06-14T06:39:41;15.40;99.90
11446;DHT22;5779;64.178;15.432;2023-06-14T06:42:29;15.60;99.90
11446;DHT22;5779;64.178;15.432;2023-06-14T06:45:16;15.70;99.90
11446;DHT22;5779;64.178;15.432;2023-06-14T06:48:04;15.70;99.30
11446;DHT22;5779;64.178;15.432;2023-06-14T06:50:51;15.70;99.90
11446;DHT22;5779;64.178;15.432;2023-06-14T06:53:38;15.80;99.90
11446;DHT22;5779;64.178;15.432;2023-06-14T06:56:24;15.90;98.20
11446;DHT22;5779;64.178;15.432;2023-06-14T06:59:13;16.00;98.90
11446;DHT22;5779;64.178;15.432;2023-06-14T07:02:01;16.00;97.80
11446;DHT22;5779;64.178;15.432;2023-06-14T07:04:48;16.10;98.00
11446;DHT22;5779;64.178;15.432;2023-06-14T07:07:35;16.20;98.00
11446;DHT22;5779;64.178;15.432;2023-06-14T07:10:22;16.30;97.30
11446;DHT22;5779;64.178;15.432;2023-06-14T07:13:09;16.30;97.30
11446;DHT22;5779;64.178;15.432;2023-06-14T07:16:00;16.40;97.00
11446;DHT22;5779;64.178;15.432;2023-06-14T07:18:47;16.50;97.00
11446;DHT22;5779;64.178;15.432;2023-06-14T07:21:34;16.60;96.40
11446;DHT22;5779;64.178;15.432;2023-06-14T07:24:22;16.70;95.90
11446;DHT22;5779;64.178;15.432;2023-06-14T07:27:09;16.70;95.80
11446;DHT22;5779;64.178;15.432;2023-06-14T07:29:58;16.80;95.60
11446;DHT22;5779;64.178;15.432;2023-06-14T07:32:46;16.90;96.00
11446;DHT22;5779;64.178;15.432;2023-06-14T07:35:34;17.30;95.90
11446;DHT22;5779;64.178;15.432;2023-06-14T07:38:21;17.10;95.40
11446;DHT22;5779;64.178;15.432;2023-06-14T07:41:08;17.20;95.60
11446;DHT22;5779;64.178;15.432;2023-06-14T07:43:55;17.10;94.10
11446;DHT22;5779;64.178;15.432;2023-06-14T07:46:41;17.30;92.70
11446;DHT22;5779;64.178;15.432;2023-06-14T07:49:30;17.40;93.10
11446;DHT22;5779;64.178;15.432;2023-06-14T07:52:17;17.60;93.00
11446;DHT22;5779;64.178;15.432;2023-06-14T07:55:05;17.70;92.40
11446;DHT22;5779;64.178;15.432;2023-06-14T07:57:52;17.70;92.50
11446;DHT22;5779;64.178;15.432;2023-06-14T08:00:38;17.80;93.60
11446;DHT22;5779;64.178;15.432;2023-06-14T08:03:25;17.90;93.00
11446;DHT22;5779;64.178;15.432;2023-06-14T08:06:13;18.00;93.00
11446;DHT22;5779;64.178;15.432;2023-06-14T08:09:00;18.20;91.50
11446;DHT22;5779;64.178;15.432;2023-06-14T08:11:47;18.20;91.20
11446;DHT22;5779;64.178;15.432;2023-06-14T08:14:34;18.20;91.30
11446;DHT22;5779;64.178;15.432;2023-06-14T08:17:21;18.40;91.90
11446;DHT22;5779;64.178;15.432;2023-06-14T08:20:08;18.40;91.80
11446;DHT22;5779;64.178;15.432;2023-06-14T08:22:57;18.40;90.70
11446;DHT22;5779;64.178;15.432;2023-06-14T08:25:44;18.40;91.20
11446;DHT22;5779;64.178;15.432;2023-06-14T08:28:31;18.70;92.00
11446;DHT22;5779;64.178;15.432;2023-06-14T08:31:18;18.70;90.80
11446;DHT22;5779;64.178;15.432;2023-06-14T08:34:05;18.70;91.50
11446;DHT22;5779;64.178;15.432;2023-06-14T08:36:52;18.80;90.30
11446;DHT22;5779;64.178;15.432;2023-06-14T08:39:40;19.00;91.90
11446;DHT22;5779;64.178;15.432;2023-06-14T08:42:27;19.20;91.00
11446;DHT22;5779;64.178;15.432;2023-06-14T08:45:14;19.20;91.00
11446;DHT22;5779;64.178;15.432;2023-06-14T08:48:01;19.10;90.30
11446;DHT22;5779;64.178;15.432;2023-06-14T08:50:48;19.10;87.60
11446;DHT22;5779;64.178;15.432;2023-06-14T08:53:36;19.10;91.30
11446;DHT22;5779;64.178;15.432;2023-06-14T08:56:29;19.30;87.00
11446;DHT22;5779;64.178;15.432;2023-06-14T08:59:16;19.50;90.90
11446;DHT22;5779;64.178;15.432;2023-06-14T09:02:03;19.80;91.10
11446;DHT22;5779;64.178;15.432;2023-06-14T09:04:51;19.70;88.30
11446;DHT22;5779;64.178;15.432;2023-06-14T09:07:39;19.50;90.10
11446;DHT22;5779;64.178;15.432;2023-06-14T09:10:27;19.60;86.80
11446;DHT22;5779;64.178;15.432;2023-06-14T09:13:17;19.40;83.90
11446;DHT22;5779;64.178;15.432;2023-06-14T09:16:05;19.50;86.70
11446;DHT22;5779;64.178;15.432;2023-06-14T09:18:51;19.70;87.80
11446;DHT22;5779;64.178;15.432;2023-06-14T09:21:40;19.80;85.70
11446;DHT22;5779;64.178;15.432;2023-06-14T09:24:27;19.80;89.40
11446;DHT22;5779;64.178;15.432;2023-06-14T09:27:15;20.10;89.80
11446;DHT22;5779;64.178;15.432;2023-06-14T09:30:05;20.20;88.80
11446;DHT22;5779;64.178;15.432;2023-06-14T09:32:53;20.00;85.20
11446;DHT22;5779;64.178;15.432;2023-06-14T09:35:40;20.20;88.10
11446;DHT22;5779;64.178;15.432;2023-06-14T09:38:27;20.40;86.40
11446;DHT22;5779;64.178;15.432;2023-06-14T09:41:14;20.10;85.50
11446;DHT22;5779;64.178;15.432;2023-06-14T09:44:03;20.30;88.80
11446;DHT22;5779;64.178;15.432;2023-06-14T09:46:53;20.20;87.20
11446;DHT22;5779;64.178;15.432;2023-06-14T09:49:42;20.10;85.70
11446;DHT22;5779;64.178;15.432;2023-06-14T09:52:30;20.40;85.90
11446;DHT22;5779;64.178;15.432;2023-06-14T09:55:18;20.40;85.00
11446;DHT22;5779;64.178;15.432;2023-06-14T09:58:06;20.30;82.90
11446;DHT22;5779;64.178;15.432;2023-06-14T10:00:54;20.30;86.80
11446;DHT22;5779;64.178;15.432;2023-06-14T10:03:44;20.60;87.70
11446;DHT22;5779;64.178;15.432;2023-06-14T10:06:32;20.60;84.00
11446;DHT22;5779;64.178;15.432;2023-06-14T10:09:22;20.60;86.00
11446;DHT22;5779;64.178;15.432;2023-06-14T10:12:09;20.90;84.20
11446;DHT22;5779;64.178;15.432;2023-06-14T10:15:00;20.70;82.20
11446;DHT22;5779;64.178;15.432;2023-06-14T10:17:52;20.90;83.10
11446;DHT22;5779;64.178;15.432;2023-06-14T10:20:57;21.10;84.00
11446;DHT22;5779;64.178;15.432;2023-06-14T10:23:47;20.90;85.70
11446;DHT22;5779;64.178;15.432;2023-06-14T10:26:35;21.20;82.30
11446;DHT22;5779;64.178;15.432;2023-06-14T10:29:22;21.30;85.60
11446;DHT22;5779;64.178;15.432;2023-06-14T10:32:08;21.50;81.30
11446;DHT22;5779;64.178;15.432;2023-06-14T10:34:57;21.00;79.70
11446;DHT22;5779;64.178;15.432;2023-06-14T10:37:48;21.00;78.90
11446;DHT22;5779;64.178;15.432;2023-06-14T10:40:34;21.20;83.50
11446;DHT22;5779;64.178;15.432;2023-06-14T10:43:23;21.60;87.80
11446;DHT22;5779;64.178;15.432;2023-06-14T10:46:17;21.80;81.70
11446;DHT22;5779;64.178;15.432;2023-06-14T10:49:07;21.70;84.30
11446;DHT22;5779;64.178;15.432;2023-06-14T10:51:57;21.60;80.40
11446;DHT22;5779;64.178;15.432;2023-06-14T10:55:01;21.70;82.00
11446;DHT22;5779;64.178;15.432;2023-06-14T10:57:50;21.80;80.30
11446;DHT22;5779;64.178;15.432;2023-06-14T11:00:38;21.90;78.30
11446;DHT22;5779;64.178;15.432;2023-06-14T11:03:50;21.80;78.90
11446;DHT22;5779;64.178;15.432;2023-06-14T11:06:47;22.10;78.90
11446;DHT22;5779;64.178;15.432;2023-06-14T11:10:03;22.30;79.70
11446;DHT22;5779;64.178;15.432;2023-06-14T11:12:55;22.10;75.10
11446;DHT22;5779;64.178;15.432;2023-06-14T11:15:45;22.10;75.30
11446;DHT22;5779;64.178;15.432;2023-06-14T11:18:32;22.00;76.40
11446;DHT22;5779;64.178;15.432;2023-06-14T11:21:20;22.20;80.50
11446;DHT22;5779;64.178;15.432;2023-06-14T11:24:10;22.60;81.50
11446;DHT22;5779;64.178;15.432;2023-06-14T11:26:58;22.30;79.70
11446;DHT22;5779;64.178;15.432;2023-06-14T11:29:48;22.40;78.10
11446;DHT22;5779;64.178;15.432;2023-06-14T11:32:35;22.30;82.20
11446;DHT22;5779;64.178;15.432;2023-06-14T11:35:23;22.30;75.60
11446;DHT22;5779;64.178;15.432;2023-06-14T11:38:10;22.10;75.60
11446;DHT22;5779;64.178;15.432;2023-06-14T11:40:59;22.20;76.10
11446;DHT22;5779;64.178;15.432;2023-06-14T11:43:48;22.60;76.60
11446;DHT22;5779;64.178;15.432;2023-06-14T11:46:38;22.50;75.10
11446;DHT22;5779;64.178;15.432;2023-06-14T11:49:25;22.50;77.60
11446;DHT22;5779;64.178;15.432;2023-06-14T11:52:12;22.70;78.90
11446;DHT22;5779;64.178;15.432;2023-06-14T11:54:59;22.50;83.20
11446;DHT22;5779;64.178;15.432;2023-06-14T11:57:49;23.00;77.10
11446;DHT22;5779;64.178;15.432;2023-06-14T12:00:38;23.10;74.60
11446;DHT22;5779;64.178;15.432;2023-06-14T12:03:25;23.00;75.60
11446;DHT22;5779;64.178;15.432;2023-06-14T12:06:12;22.80;78.20
11446;DHT22;5779;64.178;15.432;2023-06-14T12:08:59;22.80;74.80
11446;DHT22;5779;64.178;15.432;2023-06-14T12:11:46;22.90;77.20
11446;DHT22;5779;64.178;15.432;2023-06-14T12:14:33;22.90;78.90
11446;DHT22;5779;64.178;15.432;2023-06-14T12:17:22;23.10;79.30
11446;DHT22;5779;64.178;15.432;2023-06-14T12:20:10;23.00;77.70
11446;DHT22;5779;64.178;15.432;2023-06-14T12:22:59;22.60;75.60
11446;DHT22;5779;64.178;15.432;2023-06-14T12:25:49;23.00;82.30
11446;DHT22;5779;64.178;15.432;2023-06-14T12:28:37;22.90;78.50
11446;DHT22;5779;64.178;15.432;2023-06-14T12:31:24;22.80;78.50
11446;DHT22;5779;64.178;15.432;2023-06-14T12:34:12;22.90;76.40
11446;DHT22;5779;64.178;15.432;2023-06-14T12:36:59;23.10;76.50
11446;DHT22;5779;64.178;15.432;2023-06-14T12:39:46;22.80;77.10
11446;DHT22;5779;64.178;15.432;2023-06-14T12:42:32;23.10;79.30
11446;DHT22;5779;64.178;15.432;2023-06-14T12:45:20;23.20;78.90
11446;DHT22;5779;64.178;15.432;2023-06-14T12:48:08;23.30;79.40
11446;DHT22;5779;64.178;15.432;2023-06-14T12:50:56;22.90;81.80
11446;DHT22;5779;64.178;15.432;2023-06-14T12:53:43;23.40;80.20
11446;DHT22;5779;64.178;15.432;2023-06-14T12:56:31;23.30;81.70
11446;DHT22;5779;64.178;15.432;2023-06-14T12:59:18;23.20;80.20
11446;DHT22;5779;64.178;15.432;2023-06-14T13:02:12;23.50;78.70
11446;DHT22;5779;64.178;15.432;2023-06-14T13:04:59;23.50;82.80
11446;DHT22;5779;64.178;15.432;2023-06-14T13:07:50;23.80;80.30
11446;DHT22;5779;64.178;15.432;2023-06-14T13:10:37;23.40;79.70
11446;DHT22;5779;64.178;15.432;2023-06-14T13:13:24;23.30;81.10
11446;DHT22;5779;64.178;15.432;2023-06-14T13:16:11;23.60;77.80
11446;DHT22;5779;64.178;15.432;2023-06-14T13:18:59;23.50;81.50
11446;DHT22;5779;64.178;15.432;2023-06-14T13:21:46;23.30;76.50
11446;DHT22;5779;64.178;15.432;2023-06-14T13:24:35;23.50;82.20
11446;DHT22;5779;64.178;15.432;2023-06-14T13:27:21;23.40;81.60
11446;DHT22;5779;64.178;15.432;2023-06-14T13:30:10;23.80;78.70
11446;DHT22;5779;64.178;15.432;2023-06-14T13:32:58;23.60;78.00
11446;DHT22;5779;64.178;15.432;2023-06-14T13:35:45;23.30;75.70
11446;DHT22;5779;64.178;15.432;2023-06-14T13:38:33;23.10;76.00
11446;DHT22;5779;64.178;15.432;2023-06-14T13:41:22;23.20;75.20
11446;DHT22;5779;64.178;15.432;2023-06-14T13:44:09;23.30;71.00
11446;DHT22;5779;64.178;15.432;2023-06-14T13:46:59;23.20;72.20
11446;DHT22;5779;64.178;15.432;2023-06-14T13:49:46;23.40;74.30
11446;DHT22;5779;64.178;15.432;2023-06-14T13:52:33;23.20;74.20
11446;DHT22;5779;64.178;15.432;2023-06-14T13:55:20;23.60;76.10
11446;DHT22;5779;64.178;15.432;2023-06-14T13:58:08;23.60;75.20
11446;DHT22;5779;64.178;15.432;2023-06-14T14:00:55;23.70;72.90
11446;DHT22;5779;64.178;15.432;2023-06-14T14:03:45;23.90;76.50
11446;DHT22;5779;64.178;15.432;2023-06-14T14:06:31;24.20;70.00
11446;DHT22;5779;64.178;15.432;2023-06-14T14:09:18;24.00;69.70
11446;DHT22;5779;64.178;15.432;2023-06-14T14:12:06;24.00;73.30
11446;DHT22;5779;64.178;15.432;2023-06-14T14:14:54;23.70;72.60
11446;DHT22;5779;64.178;15.432;2023-06-14T14:17:41;23.70;71.20
11446;DHT22;5779;64.178;15.432;2023-06-14T14:20:30;23.80;70.70
11446;DHT22;5779;64.178;15.432;2023-06-14T14:23:16;23.80;72.00
11446;DHT22;5779;64.178;15.432;2023-06-14T14:26:05;23.90;72.30
11446;DHT22;5779;64.178;15.432;2023-06-14T14:28:52;23.80;73.50
11446;DHT22;5779;64.178;15.432;2023-06-14T14:31:40;23.60;66.60
11446;DHT22;5779;64.178;15.432;2023-06-14T14:34:27;23.60;72.30
11446;DHT22;5779;64.178;15.432;2023-06-14T14:37:14;23.70;72.40
11446;DHT22;5779;64.178;15.432;2023-06-14T14:40:01;23.70;66.50
11446;DHT22;5779;64.178;15.432;2023-06-14T14:42:49;23.80;66.60
11446;DHT22;5779;64.178;15.432;2023-06-14T14:45:35;23.80;69.40
11446;DHT22;5779;64.178;15.432;2023-06-14T14:48:24;23.70;70.10
11446;DHT22;5779;64.178;15.432;2023-06-14T14:51:11;23.70;70.90
11446;DHT22;5779;64.178;15.432;2023-06-14T14:53:58;23.90;70.20
11446;DHT22;5779;64.178;15.432;2023-06-14T14:56:45;24.10;72.30
11446;DHT22;5779;64.178;15.432;2023-06-14T14:59:32;23.90;70.60
11446;DHT22;5779;64.178;15.432;2023-06-14T15:02:19;23.80;71.20
11446;DHT22;5779;64.178;15.432;2023-06-14T15:05:08;23.80;71.70
11446;DHT22;5779;64.178;15.432;2023-06-14T15:07:55;23.70;72.30
11446;DHT22;5779;64.178;15.432;2023-06-14T15:10:42;23.90;69.50
11446;DHT22;5779;64.178;15.432;2023-06-14T15:13:29;23.80;72.10
11446;DHT22;5779;64.178;15.432;2023-06-14T15:16:15;23.70;69.50
11446;DHT22;5779;64.178;15.432;2023-06-14T15:19:02;23.80;70.00
11446;DHT22;5779;64.178;15.432;2023-06-14T15:21:50;23.90;70.60
11446;DHT22;5779;64.178;15.432;2023-06-14T15:24:37;23.80;69.40
11446;DHT22;5779;64.178;15.432;2023-06-14T15:27:24;24.30;70.90
11446;DHT22;5779;64.178;15.432;2023-06-14T15:30:12;23.90;67.90
11446;DHT22;5779;64.178;15.432;2023-06-14T15:32:59;23.70;71.80
11446;DHT22;5779;64.178;15.432;2023-06-14T15:35:46;23.80;72.50
11446;DHT22;5779;64.178;15.432;2023-06-14T15:38:34;24.00;71.00
11446;DHT22;5779;64.178;15.432;2023-06-14T15:41:21;23.80;72.80
11446;DHT22;5779;64.178;15.432;2023-06-14T15:44:07;23.80;72.50
11446;DHT22;5779;64.178;15.432;2023-06-14T15:46:54;23.50;69.40
11446;DHT22;5779;64.178;15.432;2023-06-14T15:49:41;23.80;70.20
11446;DHT22;5779;64.178;15.432;2023-06-14T15:52:28;23.70;69.60
11446;DHT22;5779;64.178;15.432;2023-06-14T15:55:17;23.90;72.60
11446;DHT22;5779;64.178;15.432;2023-06-14T15:58:03;23.60;73.00
11446;DHT22;5779;64.178;15.432;2023-06-14T16:00:50;24.00;74.80
11446;DHT22;5779;64.178;15.432;2023-06-14T16:03:37;24.10;71.30
11446;DHT22;5779;64.178;15.432;2023-06-14T16:06:24;23.70;70.40
11446;DHT22;5779;64.178;15.432;2023-06-14T16:09:11;23.90;71.70
11446;DHT22;5779;64.178;15.432;2023-06-14T16:11:59;23.50;71.20
11446;DHT22;5779;64.178;15.432;2023-06-14T16:14:47;23.60;70.40
11446;DHT22;5779;64.178;15.432;2023-06-14T16:17:33;23.70;71.30
11446;DHT22;5779;64.178;15.432;2023-06-14T16:20:20;23.60;74.10
11446;DHT22;5779;64.178;15.432;2023-06-14T16:23:07;23.60;72.80
11446;DHT22;5779;64.178;15.432;2023-06-14T16:25:54;23.50;74.50
11446;DHT22;5779;64.178;15.432;2023-06-14T16:28:42;23.70;76.70
11446;DHT22;5779;64.178;15.432;2023-06-14T16:31:29;24.10;75.30
11446;DHT22;5779;64.178;15.432;2023-06-14T16:34:16;24.00;77.20
11446;DHT22;5779;64.178;15.432;2023-06-14T16:37:03;23.90;76.20
11446;DHT22;5779;64.178;15.432;2023-06-14T16:39:50;23.60;73.20
11446;DHT22;5779;64.178;15.432;2023-06-14T16:42:37;23.30;73.90
11446;DHT22;5779;64.178;15.432;2023-06-14T16:45:26;23.30;75.00
11446;DHT22;5779;64.178;15.432;2023-06-14T16:48:12;23.40;74.90
11446;DHT22;5779;64.178;15.432;2023-06-14T16:50:59;23.30;74.80
11446;DHT22;5779;64.178;15.432;2023-06-14T16:53:46;23.20;76.50
11446;DHT22;5779;64.178;15.432;2023-06-14T16:56:33;23.30;76.50
11446;DHT22;5779;64.178;15.432;2023-06-14T16:59:20;23.30;75.80
11446;DHT22;5779;64.178;15.432;2023-06-14T17:02:09;23.50;75.30
11446;DHT22;5779;64.178;15.432;2023-06-14T17:04:56;23.60;76.20
11446;DHT22;5779;64.178;15.432;2023-06-14T17:07:43;23.30;74.30
11446;DHT22;5779;64.178;15.432;2023-06-14T17:10:29;23.00;76.10
11446;DHT22;5779;64.178;15.432;2023-06-14T17:13:16;23.00;78.70
11446;DHT22;5779;64.178;15.432;2023-06-14T17:16:03;23.10;77.50
11446;DHT22;5779;64.178;15.432;2023-06-14T17:18:53;23.00;77.30
11446;DHT22;5779;64.178;15.432;2023-06-14T17:21:40;22.90;77.20
11446;DHT22;5779;64.178;15.432;2023-06-14T17:24:31;22.80;76.30
11446;DHT22;5779;64.178;15.432;2023-06-14T17:27:18;23.00;79.70
11446;DHT22;5779;64.178;15.432;2023-06-14T17:30:06;23.00;77.80
11446;DHT22;5779;64.178;15.432;2023-06-14T17:32:53;23.00;77.30
11446;DHT22;5779;64.178;15.432;2023-06-14T17:35:42;23.00;79.40
11446;DHT22;5779;64.178;15.432;2023-06-14T17:38:29;22.90;79.10
11446;DHT22;5779;64.178;15.432;2023-06-14T17:41:17;22.70;78.80
11446;DHT22;5779;64.178;15.432;2023-06-14T17:44:04;22.70;80.00
11446;DHT22;5779;64.178;15.432;2023-06-14T17:46:51;22.70;78.60